Hamilton Island Airport
YBHM : now visible

Airfield :











YOU CAN JOIN US ON...

 
LOGIN :

Register | Disclaimer

   EN    FR    IT 

 









Legend :    VFR   Marginal VFR   IFR   Intensive IFR   Very Intensive IFR
Visi :
Ceiling :
>= 8 km
>= 3000ft
5 to 8 km
1000 to 3000 ft
1500m to 5 km
500 to 1000 ft
800 to 1500m
200 to 500 ft
< 800m
< 200 ft
Symbols :   Thunderstorms  Fog  Heavy snow  Heavy precipitations  Wind > 20 kt






- Airport Elevation : 15 ft
- IATA code : HTI


YBHM - Hamilton Island

CURRENT METAR :
  • 052300Z AUTO 15021KT 9999 // NCD 19/10 Q1022

EXPIRED METARs :
  • 052230Z AUTO 15022KT 9999 // NCD 19/09 Q1022 RF00.0/000.0
  • 052200Z AUTO 15021KT 9999 // NCD 19/09 Q1022 RF00.0/000.0
  • 052130Z AUTO 14022KT 9999 // NCD 19/09 Q1021 RF00.0/000.0
  • 052100Z AUTO 15023KT 9999 // NCD 18/09 Q1021 RF00.0/000.0
  • 052030Z AUTO 15025KT 9999 // NCD 18/10 Q1020 RF00.0/000.0

TAF AMD TAF YBHM
Valid from the 05 at 20:00 until the 06 at 06:00 UTC


052005Z 0520/0606 15022KT 9999 FEW030 SCT040
YBBB FIR / Oceania



MET'MAP, your aeronautical weather chart ! - Copyright ORBIFLY December 2007 - Disclaimer

ORBIFLY MET'MAP TEAM :

Programming & Development : Alexandra Zaïnal
Concept & original design : Baudouin d'Aumeries
Assistance for programming : Marc-Olivier Méhu
Technical & hardware support : Manuel Goepfert

Contact : metmap@orbifly.com




SOURCES & CREDITS :

   NOAA       Earth
Advisory